createdAt,value
2022-09-16T00:01:28.310Z,4.70
2022-09-16T00:03:57.957Z,4.40
2022-09-16T00:06:28.604Z,4.80
2022-09-16T00:09:00.477Z,4.80
2022-09-16T00:11:33.158Z,5.40
2022-09-16T00:14:02.770Z,8.10
2022-09-16T00:16:31.825Z,5.10
2022-09-16T00:19:01.364Z,5.20
2022-09-16T00:21:31.066Z,4.50
2022-09-16T00:24:00.176Z,5.50
2022-09-16T00:26:29.476Z,5.30
2022-09-16T00:28:58.233Z,6.70
2022-09-16T00:31:27.038Z,5.40
2022-09-16T00:33:55.853Z,6.20
2022-09-16T00:36:24.741Z,5.30
2022-09-16T00:38:54.807Z,5.60
2022-09-16T00:41:26.717Z,5.90
2022-09-16T00:43:57.930Z,6.00
2022-09-16T00:46:33.034Z,5.40
2022-09-16T00:49:05.744Z,6.40
2022-09-16T00:51:35.119Z,6.00
2022-09-16T00:54:06.021Z,6.50
2022-09-16T00:56:38.534Z,6.20
2022-09-16T00:59:10.895Z,6.90
2022-09-16T01:01:41.939Z,7.50
2022-09-16T01:04:14.711Z,5.90
2022-09-16T01:06:43.643Z,8.80
2022-09-16T01:09:13.060Z,6.90
2022-09-16T01:11:41.814Z,5.50
2022-09-16T01:14:29.340Z,6.80
2022-09-16T01:17:06.564Z,6.00
2022-09-16T01:19:58.024Z,6.40
2022-09-16T01:22:45.904Z,5.70
2022-09-16T01:25:28.940Z,5.20
2022-09-16T01:28:31.126Z,5.40
2022-09-16T01:31:12.270Z,5.80
2022-09-16T01:33:49.568Z,4.70
2022-09-16T01:36:38.499Z,5.60
2022-09-16T01:39:17.783Z,6.50
2022-09-16T01:42:13.910Z,6.10
2022-09-16T01:44:51.379Z,4.20
2022-09-16T01:47:27.756Z,4.40
2022-09-16T01:50:03.951Z,5.10
2022-09-16T01:52:46.127Z,4.80
2022-09-16T01:55:20.088Z,6.20
2022-09-16T01:57:55.460Z,4.10
2022-09-16T02:02:56.456Z,5.10
2022-09-16T02:05:29.118Z,5.00
2022-09-16T02:08:02.760Z,6.30
2022-09-16T02:10:35.392Z,4.70
2022-09-16T02:13:11.567Z,4.30
2022-09-16T02:15:42.510Z,4.80
2022-09-16T02:18:14.477Z,4.60
2022-09-16T02:20:47.531Z,3.50
2022-09-16T02:23:19.833Z,5.60
2022-09-16T02:25:50.327Z,4.20
2022-09-16T02:28:24.160Z,4.50
2022-09-16T02:30:56.790Z,4.90
2022-09-16T02:33:30.756Z,5.30
2022-09-16T02:36:01.825Z,3.70
2022-09-16T02:38:38.314Z,4.20
2022-09-16T02:41:09.208Z,5.60
2022-09-16T02:43:38.003Z,4.00
2022-09-16T02:46:14.798Z,4.60
2022-09-16T02:48:54.834Z,3.50
2022-09-16T02:51:37.195Z,4.80
2022-09-16T02:54:14.917Z,3.60
2022-09-16T02:56:43.999Z,5.20
2022-09-16T02:59:14.797Z,4.50
2022-09-16T03:01:45.823Z,3.40
2022-09-16T03:04:16.595Z,3.00
2022-09-16T03:06:46.543Z,4.90
2022-09-16T03:09:18.025Z,5.80
2022-09-16T03:12:25.468Z,3.70
2022-09-16T03:15:16.063Z,4.30
2022-09-16T03:18:08.610Z,3.00
2022-09-16T03:20:45.283Z,4.50
2022-09-16T03:23:26.698Z,3.30
2022-09-16T03:26:03.532Z,4.60
2022-09-16T03:28:41.683Z,3.00
2022-09-16T03:31:17.364Z,3.20
2022-09-16T03:33:50.949Z,4.80
2022-09-16T03:36:25.148Z,5.80
2022-09-16T03:38:54.989Z,3.00
2022-09-16T03:41:24.836Z,2.70
2022-09-16T03:43:56.521Z,4.50
2022-09-16T03:46:28.435Z,3.20
2022-09-16T03:48:58.202Z,4.00
2022-09-16T03:51:27.577Z,4.40
2022-09-16T03:53:56.355Z,5.00
2022-09-16T03:56:25.520Z,2.50
2022-09-16T03:58:54.213Z,3.20
2022-09-16T04:01:22.984Z,4.80
2022-09-16T04:03:52.162Z,3.20
2022-09-16T04:06:20.956Z,2.30
2022-09-16T04:08:50.749Z,3.70
2022-09-16T04:11:19.471Z,3.30
2022-09-16T04:13:48.301Z,3.30
2022-09-16T04:16:21.779Z,3.80
2022-09-16T04:18:51.153Z,4.50
2022-09-16T04:21:19.904Z,3.60
2022-09-16T04:23:49.102Z,4.50
2022-09-16T04:26:18.175Z,3.60
2022-09-16T04:28:48.010Z,3.70
2022-09-16T04:31:17.444Z,3.90
2022-09-16T04:33:46.362Z,4.40
2022-09-16T04:36:17.091Z,3.50
2022-09-16T04:38:47.539Z,4.80
2022-09-16T04:41:18.623Z,2.60
2022-09-16T04:43:50.471Z,4.00
2022-09-16T04:46:19.811Z,3.70
2022-09-16T04:48:49.785Z,5.20
2022-09-16T04:51:19.729Z,2.90
2022-09-16T04:53:48.782Z,4.50
2022-09-16T04:56:20.055Z,4.30
2022-09-16T04:58:51.073Z,3.90
2022-09-16T05:01:21.871Z,4.30
2022-09-16T05:03:53.789Z,4.50
2022-09-16T05:06:24.193Z,2.80
2022-09-16T05:08:54.420Z,4.40
2022-09-16T05:11:25.461Z,4.20
2022-09-16T05:13:56.124Z,4.90
2022-09-16T05:16:25.332Z,4.80
2022-09-16T05:18:56.059Z,4.20
2022-09-16T05:21:26.643Z,2.90
2022-09-16T05:23:59.541Z,3.30
2022-09-16T05:26:31.236Z,5.20
2022-09-16T05:29:03.316Z,4.20
2022-09-16T05:31:33.906Z,2.90
2022-09-16T05:34:04.239Z,3.20
2022-09-16T05:36:36.912Z,3.30
2022-09-16T05:39:23.685Z,3.60
2022-09-16T05:41:56.526Z,2.40
2022-09-16T05:44:26.545Z,4.40
2022-09-16T05:46:55.819Z,3.80
2022-09-16T05:49:25.128Z,3.30
2022-09-16T05:51:54.993Z,3.50
2022-09-16T05:54:27.633Z,3.70
2022-09-16T05:56:57.084Z,4.30
2022-09-16T05:59:25.806Z,2.70
2022-09-16T06:01:54.827Z,3.70
2022-09-16T06:04:23.552Z,2.70
2022-09-16T06:06:52.415Z,4.20
2022-09-16T06:09:23.945Z,4.10
2022-09-16T06:11:58.033Z,4.10
2022-09-16T06:14:30.540Z,3.40
2022-09-16T06:16:59.423Z,5.40
2022-09-16T06:19:28.479Z,4.30
2022-09-16T06:21:57.308Z,5.80
2022-09-16T06:24:26.361Z,3.20
2022-09-16T06:26:55.131Z,2.90
2022-09-16T06:29:24.016Z,5.10
2022-09-16T06:31:52.707Z,2.60
2022-09-16T06:34:21.451Z,4.00
2022-09-16T06:36:50.291Z,3.90
2022-09-16T06:39:19.078Z,3.30
2022-09-16T06:41:53.388Z,3.70
2022-09-16T06:44:22.733Z,3.80
2022-09-16T06:46:51.538Z,3.80
2022-09-16T06:49:20.264Z,3.60
2022-09-16T06:51:51.098Z,4.30
2022-09-16T06:54:20.295Z,3.20
2022-09-16T06:56:49.045Z,5.50
2022-09-16T06:59:17.816Z,4.90
2022-09-16T07:01:46.561Z,4.00
2022-09-16T07:04:15.405Z,3.50
2022-09-16T07:07:07.973Z,4.40
2022-09-16T07:09:34.362Z,5.50
2022-09-16T07:12:03.804Z,3.60
2022-09-16T07:14:32.567Z,3.60
2022-09-16T07:17:02.149Z,4.20
2022-09-16T07:19:31.027Z,3.20
2022-09-16T07:21:59.736Z,3.40
2022-09-16T07:24:28.544Z,6.60
2022-09-16T07:27:00.674Z,4.50
2022-09-16T07:29:29.654Z,3.70
2022-09-16T07:32:00.450Z,3.60
2022-09-16T07:34:30.435Z,2.00
2022-09-16T07:36:59.987Z,4.50
2022-09-16T07:39:28.849Z,3.70
2022-09-16T07:41:57.585Z,3.80
2022-09-16T07:44:27.027Z,2.70
2022-09-16T07:46:55.879Z,3.40
2022-09-16T07:49:24.566Z,2.60
2022-09-16T07:51:53.609Z,2.40
2022-09-16T07:54:22.305Z,3.90
2022-09-16T07:56:51.196Z,2.10
2022-09-16T07:59:21.192Z,3.00
2022-09-16T08:01:50.674Z,2.90
2022-09-16T08:04:20.920Z,2.70
2022-09-16T08:06:50.148Z,2.50
2022-09-16T08:12:10.227Z,2.70
2022-09-16T08:14:39.044Z,2.50
2022-09-16T08:17:07.768Z,3.20
2022-09-16T08:19:38.695Z,2.10
2022-09-16T08:22:07.963Z,2.40
2022-09-16T08:24:36.893Z,2.10
2022-09-16T08:27:08.015Z,2.00
2022-09-16T08:29:36.805Z,2.10
2022-09-16T08:32:05.916Z,1.30
2022-09-16T08:34:34.742Z,2.00
2022-09-16T08:37:03.658Z,2.70
2022-09-16T08:39:32.885Z,2.50
2022-09-16T08:42:29.051Z,1.30
2022-09-16T08:45:09.020Z,2.30
2022-09-16T08:47:49.924Z,9.00
2022-09-16T08:50:26.069Z,2.40
2022-09-16T08:52:59.744Z,2.30
2022-09-16T08:55:32.656Z,1.80
2022-09-16T08:58:07.304Z,1.30
2022-09-16T09:00:37.100Z,1.50
2022-09-16T09:03:17.331Z,2.40
2022-09-16T09:05:52.188Z,1.90
2022-09-16T09:08:36.526Z,2.00
2022-09-16T09:11:11.569Z,1.50
2022-09-16T09:13:57.062Z,1.30
2022-09-16T09:19:22.448Z,2.10
2022-09-16T09:22:00.263Z,1.00
2022-09-16T09:24:43.999Z,1.10
2022-09-16T09:27:18.003Z,1.40
2022-09-16T09:30:03.169Z,1.80
2022-09-16T09:32:49.005Z,1.50
2022-09-16T09:35:33.550Z,0.50
2022-09-16T09:38:27.395Z,1.90
2022-09-16T09:41:03.691Z,1.00
2022-09-16T09:43:36.404Z,0.70
2022-09-16T09:46:11.027Z,1.40
2022-09-16T09:48:44.875Z,1.00
2022-09-16T09:51:20.107Z,1.20
2022-09-16T09:53:53.602Z,1.30
2022-09-16T09:56:29.003Z,0.90
2022-09-16T09:59:04.840Z,1.20
2022-09-16T10:01:35.699Z,0.90
2022-09-16T10:04:12.711Z,1.50
2022-09-16T10:06:51.309Z,1.90
2022-09-16T10:09:25.878Z,1.00
2022-09-16T10:12:02.130Z,1.40
2022-09-16T10:14:34.029Z,0.70
2022-09-16T10:17:06.359Z,1.40
2022-09-16T10:19:40.470Z,1.20
2022-09-16T10:22:20.125Z,0.80
2022-09-16T10:24:55.356Z,1.10
2022-09-16T10:30:08.204Z,1.10
2022-09-16T10:32:48.695Z,1.50
2022-09-16T10:35:23.092Z,0.50
2022-09-16T10:37:54.682Z,0.40
2022-09-16T10:40:24.858Z,0.30
2022-09-16T10:42:56.898Z,0.80
2022-09-16T10:45:29.199Z,0.70
2022-09-16T10:48:04.832Z,1.20
2022-09-16T10:50:35.876Z,2.20
2022-09-16T10:53:20.995Z,2.10
2022-09-16T10:55:58.731Z,1.10
2022-09-16T10:58:27.739Z,2.10
2022-09-16T11:01:09.177Z,0.90
2022-09-16T11:04:07.491Z,1.20
2022-09-16T11:06:49.636Z,1.40
2022-09-16T11:09:26.553Z,0.70
2022-09-16T11:12:22.397Z,1.00
2022-09-16T11:17:42.296Z,0.70
2022-09-16T11:20:53.908Z,1.20
2022-09-16T11:23:35.104Z,0.60
2022-09-16T11:26:12.902Z,1.30
2022-09-16T11:28:51.511Z,0.90
2022-09-16T11:31:33.933Z,0.80
2022-09-16T11:34:10.836Z,1.30
2022-09-16T11:36:54.487Z,1.10
2022-09-16T11:39:43.803Z,0.70
2022-09-16T11:42:21.351Z,2.50
2022-09-16T11:44:57.365Z,1.20
2022-09-16T11:47:46.013Z,1.40
2022-09-16T11:50:25.553Z,2.40
2022-09-16T11:53:22.323Z,1.40
2022-09-16T11:55:57.327Z,1.50
2022-09-16T11:58:36.756Z,1.90
2022-09-16T12:01:15.651Z,1.10
2022-09-16T12:03:49.208Z,1.10
2022-09-16T12:06:23.320Z,1.20
2022-09-16T12:08:58.228Z,1.80
2022-09-16T12:11:33.317Z,1.80
2022-09-16T12:14:11.467Z,2.10
2022-09-16T12:16:45.119Z,1.80
2022-09-16T12:19:20.291Z,2.00
2022-09-16T12:21:57.727Z,1.50
2022-09-16T12:24:37.124Z,1.40
2022-09-16T12:27:11.053Z,1.40
2022-09-16T12:29:47.816Z,1.90
2022-09-16T12:32:21.831Z,1.10
2022-09-16T12:34:56.348Z,0.90
2022-09-16T12:37:36.393Z,1.30
2022-09-16T12:40:12.170Z,1.90
2022-09-16T12:43:26.074Z,1.30
2022-09-16T12:46:34.619Z,2.60
2022-09-16T12:49:37.461Z,2.20
2022-09-16T12:52:23.508Z,1.50
2022-09-16T12:55:17.190Z,2.30
2022-09-16T12:58:02.901Z,2.30
2022-09-16T13:00:39.525Z,1.80
2022-09-16T13:03:15.380Z,2.10
2022-09-16T13:05:48.365Z,2.30
2022-09-16T13:08:23.196Z,0.60
2022-09-16T13:11:19.984Z,1.30
2022-09-16T13:13:51.180Z,1.10
2022-09-16T13:16:31.090Z,1.60
2022-09-16T13:19:39.458Z,0.90
2022-09-16T13:22:21.767Z,1.90
2022-09-16T13:24:55.212Z,1.70
2022-09-16T13:27:30.859Z,1.70
2022-09-16T13:30:37.783Z,1.60
2022-09-16T13:33:28.222Z,1.10
2022-09-16T13:36:30.350Z,1.10
2022-09-16T13:39:01.511Z,1.50
2022-09-16T13:41:34.312Z,1.70
2022-09-16T13:44:24.764Z,2.10
2022-09-16T13:46:53.895Z,1.30
2022-09-16T13:49:27.184Z,1.40
2022-09-16T13:51:56.101Z,1.20
2022-09-16T13:54:31.114Z,1.40
2022-09-16T13:57:12.882Z,2.00
2022-09-16T14:00:00.366Z,1.50
2022-09-16T14:02:42.604Z,2.70
2022-09-16T14:05:29.750Z,1.40
2022-09-16T14:08:05.892Z,2.00
2022-09-16T14:10:47.892Z,1.90
2022-09-16T14:13:19.132Z,2.40
2022-09-16T14:15:50.049Z,3.50
2022-09-16T14:18:23.888Z,1.90
2022-09-16T14:21:00.042Z,2.80
2022-09-16T14:23:29.851Z,1.70
2022-09-16T14:26:09.111Z,2.20
2022-09-16T14:28:38.919Z,1.70
2022-09-16T14:31:12.104Z,2.00
2022-09-16T14:33:46.000Z,2.00
2022-09-16T14:36:20.437Z,2.70
2022-09-16T14:38:54.364Z,2.80
2022-09-16T14:41:28.352Z,1.90
2022-09-16T14:44:03.193Z,2.10
2022-09-16T14:46:32.036Z,3.00
2022-09-16T14:49:02.129Z,1.50
2022-09-16T14:51:31.232Z,1.40
2022-09-16T14:54:15.925Z,2.90
2022-09-16T14:56:55.819Z,1.80
2022-09-16T14:59:28.045Z,2.00
2022-09-16T15:01:59.738Z,2.20
2022-09-16T15:04:35.404Z,1.90
2022-09-16T15:07:12.493Z,1.60
2022-09-16T15:09:48.301Z,2.00
2022-09-16T15:12:26.607Z,1.90
2022-09-16T15:14:55.517Z,1.80
2022-09-16T15:17:28.075Z,1.80
2022-09-16T15:19:59.120Z,2.20
2022-09-16T15:22:28.778Z,2.00
2022-09-16T15:24:59.224Z,2.80
2022-09-16T15:27:31.751Z,3.00
2022-09-16T15:30:04.855Z,3.20
2022-09-16T15:32:44.950Z,2.30
2022-09-16T15:35:21.344Z,4.50
2022-09-16T15:37:51.163Z,3.60
2022-09-16T15:40:31.412Z,2.80
2022-09-16T15:43:11.876Z,3.40
2022-09-16T15:45:41.144Z,2.50
2022-09-16T15:48:16.459Z,2.40
2022-09-16T15:50:49.240Z,2.60
2022-09-16T15:53:22.430Z,1.80
2022-09-16T15:55:59.475Z,3.80
2022-09-16T15:58:39.481Z,3.80
2022-09-16T16:01:20.230Z,3.00
2022-09-16T16:03:57.525Z,3.20
2022-09-16T16:06:48.209Z,3.70
2022-09-16T16:09:37.382Z,3.90
2022-09-16T16:12:08.295Z,3.30
2022-09-16T16:14:38.522Z,4.20
2022-09-16T16:17:13.509Z,4.90
2022-09-16T16:22:11.435Z,3.20
2022-09-16T16:24:40.929Z,3.60
2022-09-16T16:27:11.798Z,3.10
2022-09-16T16:29:40.709Z,4.20
2022-09-16T16:32:12.431Z,4.00
2022-09-16T16:34:42.954Z,4.10
2022-09-16T16:37:33.766Z,5.20
2022-09-16T16:40:03.956Z,4.20
2022-09-16T16:42:32.975Z,3.90
2022-09-16T16:45:01.695Z,3.80
2022-09-16T16:47:30.412Z,5.00
2022-09-16T16:50:00.992Z,4.60
2022-09-16T16:52:29.930Z,3.90
2022-09-16T16:54:58.740Z,5.60
2022-09-16T16:57:27.459Z,4.90
2022-09-16T16:59:56.911Z,6.40
2022-09-16T17:02:25.827Z,5.10
2022-09-16T17:04:55.146Z,5.50
2022-09-16T17:07:26.943Z,5.60
2022-09-16T17:09:57.941Z,6.10
2022-09-16T17:12:27.240Z,5.30
2022-09-16T17:14:55.972Z,5.00
2022-09-16T17:17:29.078Z,4.70
2022-09-16T17:19:59.630Z,4.90
2022-09-16T17:22:28.515Z,6.40
2022-09-16T17:24:57.226Z,4.30
2022-09-16T17:27:29.343Z,6.70
2022-09-16T17:30:00.563Z,5.00
2022-09-16T17:32:29.827Z,4.10
2022-09-16T17:34:58.645Z,5.90
2022-09-16T17:37:27.344Z,4.40
2022-09-16T17:39:56.192Z,6.00
2022-09-16T17:42:24.999Z,5.00
2022-09-16T17:44:53.714Z,5.20
2022-09-16T17:47:22.408Z,5.50
2022-09-16T17:49:52.268Z,6.60
2022-09-16T17:52:21.085Z,4.90
2022-09-16T17:54:49.819Z,5.90
2022-09-16T17:57:18.648Z,4.80
2022-09-16T17:59:47.349Z,4.80
2022-09-16T18:02:16.186Z,4.10
2022-09-16T18:04:45.011Z,4.00
2022-09-16T18:07:13.802Z,4.80
2022-09-16T18:09:42.772Z,4.90
2022-09-16T18:12:11.874Z,3.90
2022-09-16T18:14:40.686Z,4.90
2022-09-16T18:17:09.493Z,4.80
2022-09-16T18:19:39.888Z,4.30
2022-09-16T18:22:08.669Z,4.40
2022-09-16T18:24:37.376Z,4.80
2022-09-16T18:27:06.304Z,3.30
2022-09-16T18:29:35.671Z,3.70
2022-09-16T18:32:04.725Z,3.70
2022-09-16T18:34:34.107Z,3.10
2022-09-16T18:37:02.958Z,4.20
2022-09-16T18:39:31.804Z,3.70
2022-09-16T18:42:00.641Z,4.20
2022-09-16T18:44:29.346Z,4.60
2022-09-16T18:46:58.078Z,4.00
2022-09-16T18:49:28.530Z,4.80
2022-09-16T18:51:57.522Z,6.70
2022-09-16T18:54:28.249Z,5.40
2022-09-16T18:56:59.255Z,6.00
2022-09-16T18:59:30.927Z,5.10
2022-09-16T19:02:02.817Z,4.30
2022-09-16T19:04:37.225Z,5.00
2022-09-16T19:07:07.152Z,4.90
2022-09-16T19:09:37.633Z,5.20
2022-09-16T19:12:08.912Z,4.00
2022-09-16T19:14:37.734Z,5.30
2022-09-16T19:17:07.399Z,6.40
2022-09-16T19:19:36.609Z,7.60
2022-09-16T19:22:05.734Z,6.80
2022-09-16T19:24:36.650Z,5.30
2022-09-16T19:27:05.602Z,5.40
2022-09-16T19:29:34.276Z,6.50
2022-09-16T19:32:03.209Z,3.60
2022-09-16T19:34:31.989Z,5.20
2022-09-16T19:37:00.766Z,4.60
2022-09-16T19:39:29.638Z,5.60
2022-09-16T19:42:02.825Z,4.90
2022-09-16T19:44:31.574Z,4.10
2022-09-16T19:47:00.781Z,4.00
2022-09-16T19:49:29.860Z,4.80
2022-09-16T19:51:58.684Z,3.50
2022-09-16T19:54:27.415Z,6.40
2022-09-16T19:56:56.333Z,4.50
2022-09-16T19:59:25.133Z,4.80
2022-09-16T20:01:53.884Z,3.70
2022-09-16T20:04:24.019Z,3.40
2022-09-16T20:06:52.796Z,4.90
2022-09-16T20:09:21.523Z,3.20
2022-09-16T20:11:50.650Z,2.20
2022-09-16T20:14:21.309Z,4.30
2022-09-16T20:16:50.940Z,2.30
2022-09-16T20:19:21.187Z,3.00
2022-09-16T20:21:50.269Z,3.70
2022-09-16T20:24:21.151Z,3.30
2022-09-16T20:26:52.831Z,3.20
2022-09-16T20:29:22.288Z,3.20
2022-09-16T20:31:53.052Z,3.40
2022-09-16T20:34:23.604Z,3.60
2022-09-16T20:36:52.470Z,2.90
2022-09-16T20:39:21.512Z,3.90
2022-09-16T20:41:52.019Z,3.20
2022-09-16T20:44:20.739Z,3.10
2022-09-16T20:46:49.576Z,3.10
2022-09-16T20:49:19.916Z,2.40
2022-09-16T20:51:48.700Z,2.20
2022-09-16T20:54:17.537Z,2.30
2022-09-16T20:56:47.744Z,3.30
2022-09-16T20:59:19.396Z,4.00
2022-09-16T21:01:49.467Z,2.80
2022-09-16T21:04:19.839Z,3.00
2022-09-16T21:06:48.906Z,2.00
2022-09-16T21:09:18.859Z,2.10
2022-09-16T21:11:48.964Z,1.30
2022-09-16T21:14:20.928Z,1.80
2022-09-16T21:16:50.993Z,3.40
2022-09-16T21:19:19.707Z,2.20
2022-09-16T21:21:48.525Z,2.60
2022-09-16T21:24:18.298Z,2.70
2022-09-16T21:26:47.434Z,2.60
2022-09-16T21:29:20.518Z,1.40
2022-09-16T21:31:50.182Z,2.50
2022-09-16T21:34:20.851Z,3.50
2022-09-16T21:36:51.480Z,2.90
2022-09-16T21:39:21.314Z,1.40
2022-09-16T21:41:50.095Z,1.60
2022-09-16T21:44:18.938Z,1.90
2022-09-16T21:46:49.040Z,2.10
2022-09-16T21:49:23.499Z,1.60
2022-09-16T21:51:53.211Z,2.70
2022-09-16T21:54:22.523Z,2.10
2022-09-16T21:56:52.339Z,1.60
2022-09-16T21:59:21.742Z,2.30
2022-09-16T22:01:51.417Z,1.80
2022-09-16T22:04:23.233Z,1.90
2022-09-16T22:06:54.473Z,3.20
2022-09-16T22:09:23.672Z,2.00
2022-09-16T22:11:52.393Z,2.60
2022-09-16T22:14:21.107Z,2.60
2022-09-16T22:16:49.963Z,2.60
2022-09-16T22:19:19.588Z,1.90
2022-09-16T22:21:51.267Z,1.70
2022-09-16T22:24:20.821Z,3.00
2022-09-16T22:26:50.688Z,2.30
2022-09-16T22:29:19.429Z,2.20
2022-09-16T22:31:48.500Z,3.10
2022-09-16T22:34:17.343Z,2.60
2022-09-16T22:36:46.059Z,2.50
2022-09-16T22:39:17.716Z,2.40
2022-09-16T22:41:47.003Z,2.00
2022-09-16T22:44:15.722Z,3.70
2022-09-16T22:46:46.168Z,2.10
2022-09-16T22:49:16.010Z,2.50
2022-09-16T22:51:44.753Z,2.10
2022-09-16T22:54:15.210Z,2.30
2022-09-16T22:56:44.580Z,2.50
2022-09-16T22:59:17.685Z,2.70
2022-09-16T23:01:47.312Z,3.50
2022-09-16T23:04:16.268Z,3.50
2022-09-16T23:06:45.106Z,2.80
2022-09-16T23:09:14.431Z,3.20
2022-09-16T23:11:43.164Z,2.00
2022-09-16T23:14:14.835Z,1.70
2022-09-16T23:16:43.530Z,4.00
2022-09-16T23:19:12.703Z,3.00
2022-09-16T23:21:42.678Z,3.00
2022-09-16T23:24:15.657Z,4.10
2022-09-16T23:26:44.834Z,2.20
2022-09-16T23:29:15.144Z,3.20
2022-09-16T23:31:44.992Z,2.10
2022-09-16T23:34:18.078Z,2.00
2022-09-16T23:36:47.619Z,1.80
2022-09-16T23:39:16.999Z,2.70
2022-09-16T23:41:46.190Z,2.50
2022-09-16T23:44:15.875Z,1.90
2022-09-16T23:46:44.766Z,1.40
2022-09-16T23:49:16.371Z,2.20
2022-09-16T23:51:45.075Z,2.10
2022-09-16T23:54:14.194Z,2.40
2022-09-16T23:56:43.189Z,2.10
2022-09-16T23:59:12.119Z,1.40
